Burnley, United Kingdom
Current Conditions -  °F | °C
As of 4:50 PM on Friday 28 Nov 2014 (Local Time) from EGNM Reporting Station
Light Rain Light Rain  
Wind Chill: 43°   Ceiling: Unl
Heat Index: 48°   Visibility: 0.5mi
Dew Point: 48°   Wind: 12mph
Humidity: 100%   Direction: 80°E
Pressure: 29.77"   Gusts: NA
Location:  53.77°N, 2.23°W
Report Text: EGNM 281650Z 08010KT 050V130 0800 R32/P1500 -RA FG VV/// 09/09 Q1008
Loading
Personal Weather Stations






























Interactive Weather Map New forecast layout! Learn more

10-Day Weather Forecast

Advertisements
Track Severe Weather on mobile